Terminal Aerodrome Forecast
Issued by NWS Grand Forks, ND

Home | Current Version | Previous Version | Text Only | Print | Product List | Glossary On
Versions: 1 2 3 4 5 6 7 8 9 10 11 12 13 14 15
000
FTUS43 KFGF 052320
TAFFAR
TAF
KFAR 052320Z 0600/0624 35008KT P6SM BKN050
     FM060600 35008KT 5SM HZ BKN100
     FM061500 35017KT 5SM HZ SCT050=

USA.gov is the U.S. government's official web portal to all federal, state and local government web resources and services.